sensor_id;sensor_type;location;lat;lon;timestamp;P1;durP1;ratioP1;P2;durP2;ratioP2
36799;SDS011;22752;51.960;5.886;2023-04-05T00:00:42;11.37;;;4.30;;
36799;SDS011;22752;51.960;5.886;2023-04-05T00:03:07;6.83;;;4.10;;
36799;SDS011;22752;51.960;5.886;2023-04-05T00:05:34;6.83;;;4.30;;
36799;SDS011;22752;51.960;5.886;2023-04-05T00:08:01;10.07;;;3.70;;
36799;SDS011;22752;51.960;5.886;2023-04-05T00:10:27;6.10;;;4.00;;
36799;SDS011;22752;51.960;5.886;2023-04-05T00:12:54;11.33;;;4.13;;
36799;SDS011;22752;51.960;5.886;2023-04-05T00:15:20;5.90;;;3.80;;
36799;SDS011;22752;51.960;5.886;2023-04-05T00:17:46;6.60;;;4.07;;
36799;SDS011;22752;51.960;5.886;2023-04-05T00:20:12;6.57;;;3.77;;
36799;SDS011;22752;51.960;5.886;2023-04-05T00:22:39;7.00;;;3.77;;
36799;SDS011;22752;51.960;5.886;2023-04-05T00:25:08;6.63;;;4.00;;
36799;SDS011;22752;51.960;5.886;2023-04-05T00:27:34;10.50;;;3.97;;
36799;SDS011;22752;51.960;5.886;2023-04-05T00:30:00;7.57;;;4.40;;
36799;SDS011;22752;51.960;5.886;2023-04-05T00:32:25;8.97;;;4.37;;
36799;SDS011;22752;51.960;5.886;2023-04-05T00:34:51;6.30;;;3.90;;
36799;SDS011;22752;51.960;5.886;2023-04-05T00:37:17;7.90;;;4.10;;
36799;SDS011;22752;51.960;5.886;2023-04-05T00:39:42;7.57;;;4.40;;
36799;SDS011;22752;51.960;5.886;2023-04-05T00:42:08;8.63;;;4.60;;
36799;SDS011;22752;51.960;5.886;2023-04-05T00:44:34;11.10;;;4.80;;
36799;SDS011;22752;51.960;5.886;2023-04-05T00:47:04;10.80;;;4.90;;
36799;SDS011;22752;51.960;5.886;2023-04-05T00:49:31;7.67;;;4.80;;
36799;SDS011;22752;51.960;5.886;2023-04-05T00:51:59;8.87;;;5.10;;
36799;SDS011;22752;51.960;5.886;2023-04-05T00:54:25;7.67;;;4.27;;
36799;SDS011;22752;51.960;5.886;2023-04-05T00:56:55;8.53;;;4.30;;
36799;SDS011;22752;51.960;5.886;2023-04-05T00:59:21;7.63;;;4.67;;
36799;SDS011;22752;51.960;5.886;2023-04-05T01:04:50;8.50;;;4.87;;
36799;SDS011;22752;51.960;5.886;2023-04-05T01:07:28;9.67;;;4.90;;
36799;SDS011;22752;51.960;5.886;2023-04-05T01:10:00;8.77;;;4.90;;
36799;SDS011;22752;51.960;5.886;2023-04-05T01:12:29;8.93;;;4.70;;
36799;SDS011;22752;51.960;5.886;2023-04-05T01:14:57;9.47;;;4.73;;
36799;SDS011;22752;51.960;5.886;2023-04-05T01:17:25;7.77;;;4.43;;
36799;SDS011;22752;51.960;5.886;2023-04-05T01:19:53;7.70;;;4.83;;
36799;SDS011;22752;51.960;5.886;2023-04-05T01:31:31;11.53;;;4.90;;
36799;SDS011;22752;51.960;5.886;2023-04-05T01:34:25;6.97;;;3.73;;
36799;SDS011;22752;51.960;5.886;2023-04-05T01:37:01;8.43;;;4.17;;
36799;SDS011;22752;51.960;5.886;2023-04-05T01:39:30;7.23;;;4.10;;
36799;SDS011;22752;51.960;5.886;2023-04-05T01:42:00;10.07;;;4.17;;
36799;SDS011;22752;51.960;5.886;2023-04-05T01:44:27;6.27;;;3.50;;
36799;SDS011;22752;51.960;5.886;2023-04-05T01:46:53;12.07;;;5.57;;
36799;SDS011;22752;51.960;5.886;2023-04-05T01:49:18;9.30;;;4.30;;
36799;SDS011;22752;51.960;5.886;2023-04-05T01:51:44;8.80;;;4.23;;
36799;SDS011;22752;51.960;5.886;2023-04-05T01:54:10;9.50;;;3.80;;
36799;SDS011;22752;51.960;5.886;2023-04-05T01:56:36;9.73;;;4.70;;
36799;SDS011;22752;51.960;5.886;2023-04-05T01:59:01;5.27;;;3.70;;
36799;SDS011;22752;51.960;5.886;2023-04-05T02:01:27;7.37;;;3.97;;
36799;SDS011;22752;51.960;5.886;2023-04-05T02:03:53;7.23;;;3.47;;
36799;SDS011;22752;51.960;5.886;2023-04-05T02:06:18;7.33;;;4.03;;
36799;SDS011;22752;51.960;5.886;2023-04-05T02:08:44;7.80;;;4.37;;
36799;SDS011;22752;51.960;5.886;2023-04-05T02:11:09;7.37;;;4.07;;
36799;SDS011;22752;51.960;5.886;2023-04-05T02:13:35;9.33;;;4.40;;
36799;SDS011;22752;51.960;5.886;2023-04-05T02:16:01;8.43;;;4.90;;
36799;SDS011;22752;51.960;5.886;2023-04-05T02:18:26;7.90;;;4.77;;
36799;SDS011;22752;51.960;5.886;2023-04-05T02:21:04;6.83;;;3.90;;
36799;SDS011;22752;51.960;5.886;2023-04-05T02:23:32;7.07;;;4.07;;
36799;SDS011;22752;51.960;5.886;2023-04-05T02:25:58;6.77;;;4.37;;
36799;SDS011;22752;51.960;5.886;2023-04-05T02:28:24;9.77;;;4.80;;
36799;SDS011;22752;51.960;5.886;2023-04-05T02:30:51;7.83;;;4.80;;
36799;SDS011;22752;51.960;5.886;2023-04-05T02:33:16;8.40;;;4.30;;
36799;SDS011;22752;51.960;5.886;2023-04-05T02:35:42;6.30;;;4.23;;
36799;SDS011;22752;51.960;5.886;2023-04-05T02:38:08;11.03;;;6.00;;
36799;SDS011;22752;51.960;5.886;2023-04-05T02:40:34;9.30;;;5.70;;
36799;SDS011;22752;51.960;5.886;2023-04-05T02:42:59;8.63;;;4.80;;
36799;SDS011;22752;51.960;5.886;2023-04-05T02:45:25;10.83;;;4.90;;
36799;SDS011;22752;51.960;5.886;2023-04-05T02:47:52;10.63;;;5.67;;
36799;SDS011;22752;51.960;5.886;2023-04-05T02:50:18;9.70;;;5.93;;
36799;SDS011;22752;51.960;5.886;2023-04-05T02:52:45;10.33;;;5.90;;
36799;SDS011;22752;51.960;5.886;2023-04-05T02:55:13;10.30;;;4.87;;
36799;SDS011;22752;51.960;5.886;2023-04-05T02:57:39;9.07;;;5.27;;
36799;SDS011;22752;51.960;5.886;2023-04-05T03:00:06;9.33;;;4.80;;
36799;SDS011;22752;51.960;5.886;2023-04-05T03:02:33;7.80;;;4.30;;
36799;SDS011;22752;51.960;5.886;2023-04-05T03:04:58;9.03;;;5.30;;
36799;SDS011;22752;51.960;5.886;2023-04-05T03:07:26;10.03;;;5.50;;
36799;SDS011;22752;51.960;5.886;2023-04-05T03:09:52;8.73;;;5.33;;
36799;SDS011;22752;51.960;5.886;2023-04-05T03:12:18;8.43;;;4.97;;
36799;SDS011;22752;51.960;5.886;2023-04-05T03:14:43;10.73;;;5.23;;
36799;SDS011;22752;51.960;5.886;2023-04-05T03:17:10;10.03;;;5.30;;
36799;SDS011;22752;51.960;5.886;2023-04-05T03:19:36;15.10;;;5.67;;
36799;SDS011;22752;51.960;5.886;2023-04-05T03:22:02;9.10;;;5.47;;
36799;SDS011;22752;51.960;5.886;2023-04-05T03:24:28;8.10;;;4.93;;
36799;SDS011;22752;51.960;5.886;2023-04-05T03:26:54;10.97;;;5.40;;
36799;SDS011;22752;51.960;5.886;2023-04-05T03:29:20;12.77;;;5.97;;
36799;SDS011;22752;51.960;5.886;2023-04-05T03:31:46;8.77;;;5.13;;
36799;SDS011;22752;51.960;5.886;2023-04-05T03:34:13;10.17;;;5.97;;
36799;SDS011;22752;51.960;5.886;2023-04-05T03:36:38;7.73;;;5.40;;
36799;SDS011;22752;51.960;5.886;2023-04-05T03:39:10;10.23;;;5.10;;
36799;SDS011;22752;51.960;5.886;2023-04-05T03:41:40;9.17;;;5.60;;
36799;SDS011;22752;51.960;5.886;2023-04-05T03:44:06;10.87;;;5.70;;
36799;SDS011;22752;51.960;5.886;2023-04-05T03:46:32;10.70;;;5.33;;
36799;SDS011;22752;51.960;5.886;2023-04-05T03:48:58;8.77;;;5.77;;
36799;SDS011;22752;51.960;5.886;2023-04-05T03:51:25;8.60;;;4.83;;
36799;SDS011;22752;51.960;5.886;2023-04-05T03:53:51;10.87;;;5.97;;
36799;SDS011;22752;51.960;5.886;2023-04-05T03:56:17;10.57;;;5.73;;
36799;SDS011;22752;51.960;5.886;2023-04-05T03:58:43;9.77;;;5.40;;
36799;SDS011;22752;51.960;5.886;2023-04-05T04:01:09;10.13;;;5.50;;
36799;SDS011;22752;51.960;5.886;2023-04-05T04:03:35;12.37;;;5.57;;
36799;SDS011;22752;51.960;5.886;2023-04-05T04:06:02;12.93;;;6.90;;
36799;SDS011;22752;51.960;5.886;2023-04-05T04:08:28;9.40;;;5.77;;
36799;SDS011;22752;51.960;5.886;2023-04-05T04:10:54;10.57;;;6.47;;
36799;SDS011;22752;51.960;5.886;2023-04-05T04:13:20;9.97;;;6.10;;
36799;SDS011;22752;51.960;5.886;2023-04-05T04:15:46;10.17;;;5.90;;
36799;SDS011;22752;51.960;5.886;2023-04-05T04:18:11;9.33;;;6.00;;
36799;SDS011;22752;51.960;5.886;2023-04-05T04:20:37;10.60;;;6.13;;
36799;SDS011;22752;51.960;5.886;2023-04-05T04:23:03;10.90;;;6.20;;
36799;SDS011;22752;51.960;5.886;2023-04-05T04:25:30;11.03;;;5.80;;
36799;SDS011;22752;51.960;5.886;2023-04-05T04:27:56;13.10;;;6.63;;
36799;SDS011;22752;51.960;5.886;2023-04-05T04:30:22;10.23;;;6.33;;
36799;SDS011;22752;51.960;5.886;2023-04-05T04:32:50;8.70;;;6.00;;
36799;SDS011;22752;51.960;5.886;2023-04-05T04:35:20;8.50;;;5.50;;
36799;SDS011;22752;51.960;5.886;2023-04-05T04:37:55;9.82;;;5.80;;
36799;SDS011;22752;51.960;5.886;2023-04-05T04:40:34;12.40;;;6.85;;
36799;SDS011;22752;51.960;5.886;2023-04-05T04:45:30;10.87;;;6.93;;
36799;SDS011;22752;51.960;5.886;2023-04-05T04:47:59;12.00;;;7.77;;
36799;SDS011;22752;51.960;5.886;2023-04-05T04:50:25;11.77;;;7.97;;
36799;SDS011;22752;51.960;5.886;2023-04-05T04:52:51;13.33;;;7.23;;
36799;SDS011;22752;51.960;5.886;2023-04-05T04:55:16;14.93;;;7.20;;
36799;SDS011;22752;51.960;5.886;2023-04-05T04:57:50;10.03;;;7.23;;
36799;SDS011;22752;51.960;5.886;2023-04-05T05:00:16;11.73;;;6.90;;
36799;SDS011;22752;51.960;5.886;2023-04-05T05:02:43;11.50;;;7.10;;
36799;SDS011;22752;51.960;5.886;2023-04-05T05:05:09;14.00;;;7.27;;
36799;SDS011;22752;51.960;5.886;2023-04-05T05:07:35;14.83;;;7.77;;
36799;SDS011;22752;51.960;5.886;2023-04-05T05:10:04;10.47;;;7.13;;
36799;SDS011;22752;51.960;5.886;2023-04-05T05:12:30;13.57;;;7.90;;
36799;SDS011;22752;51.960;5.886;2023-04-05T05:14:56;12.77;;;7.70;;
36799;SDS011;22752;51.960;5.886;2023-04-05T05:17:22;12.87;;;7.90;;
36799;SDS011;22752;51.960;5.886;2023-04-05T05:19:48;12.33;;;7.27;;
36799;SDS011;22752;51.960;5.886;2023-04-05T05:22:14;11.33;;;7.33;;
36799;SDS011;22752;51.960;5.886;2023-04-05T05:24:40;11.70;;;6.83;;
36799;SDS011;22752;51.960;5.886;2023-04-05T05:27:06;12.13;;;7.57;;
36799;SDS011;22752;51.960;5.886;2023-04-05T05:29:32;18.93;;;8.47;;
36799;SDS011;22752;51.960;5.886;2023-04-05T05:31:58;14.33;;;8.07;;
36799;SDS011;22752;51.960;5.886;2023-04-05T05:34:23;11.10;;;7.13;;
36799;SDS011;22752;51.960;5.886;2023-04-05T05:36:49;11.83;;;6.80;;
36799;SDS011;22752;51.960;5.886;2023-04-05T05:39:18;12.20;;;6.80;;
36799;SDS011;22752;51.960;5.886;2023-04-05T05:41:44;11.90;;;7.77;;
36799;SDS011;22752;51.960;5.886;2023-04-05T05:44:10;12.43;;;7.77;;
36799;SDS011;22752;51.960;5.886;2023-04-05T05:46:36;11.97;;;7.57;;
36799;SDS011;22752;51.960;5.886;2023-04-05T05:49:01;9.70;;;7.73;;
36799;SDS011;22752;51.960;5.886;2023-04-05T05:51:27;14.33;;;7.33;;
36799;SDS011;22752;51.960;5.886;2023-04-05T05:53:53;12.10;;;7.60;;
36799;SDS011;22752;51.960;5.886;2023-04-05T05:56:18;11.33;;;7.37;;
36799;SDS011;22752;51.960;5.886;2023-04-05T05:58:44;13.17;;;7.40;;
36799;SDS011;22752;51.960;5.886;2023-04-05T06:01:10;17.33;;;7.70;;
36799;SDS011;22752;51.960;5.886;2023-04-05T06:03:36;11.93;;;7.70;;
36799;SDS011;22752;51.960;5.886;2023-04-05T06:06:02;14.83;;;7.80;;
36799;SDS011;22752;51.960;5.886;2023-04-05T06:08:30;12.03;;;8.00;;
36799;SDS011;22752;51.960;5.886;2023-04-05T06:10:56;10.93;;;7.73;;
36799;SDS011;22752;51.960;5.886;2023-04-05T06:13:22;12.67;;;7.37;;
36799;SDS011;22752;51.960;5.886;2023-04-05T06:15:48;12.53;;;7.47;;
36799;SDS011;22752;51.960;5.886;2023-04-05T06:18:14;11.23;;;7.43;;
36799;SDS011;22752;51.960;5.886;2023-04-05T06:20:43;12.63;;;7.33;;
36799;SDS011;22752;51.960;5.886;2023-04-05T06:23:09;14.53;;;8.07;;
36799;SDS011;22752;51.960;5.886;2023-04-05T06:25:35;10.40;;;7.97;;
36799;SDS011;22752;51.960;5.886;2023-04-05T06:28:02;11.97;;;7.53;;
36799;SDS011;22752;51.960;5.886;2023-04-05T06:30:28;12.93;;;7.20;;
36799;SDS011;22752;51.960;5.886;2023-04-05T06:32:54;11.23;;;7.57;;
36799;SDS011;22752;51.960;5.886;2023-04-05T06:35:20;10.37;;;7.50;;
36799;SDS011;22752;51.960;5.886;2023-04-05T06:37:46;12.27;;;7.13;;
36799;SDS011;22752;51.960;5.886;2023-04-05T06:40:12;14.57;;;7.57;;
36799;SDS011;22752;51.960;5.886;2023-04-05T06:42:39;15.73;;;7.40;;
36799;SDS011;22752;51.960;5.886;2023-04-05T06:45:05;9.17;;;6.47;;
36799;SDS011;22752;51.960;5.886;2023-04-05T06:47:34;10.53;;;6.20;;
36799;SDS011;22752;51.960;5.886;2023-04-05T06:50:02;13.23;;;6.47;;
36799;SDS011;22752;51.960;5.886;2023-04-05T06:52:32;9.00;;;5.80;;
36799;SDS011;22752;51.960;5.886;2023-04-05T06:54:58;12.80;;;6.67;;
36799;SDS011;22752;51.960;5.886;2023-04-05T06:57:25;8.77;;;5.30;;
36799;SDS011;22752;51.960;5.886;2023-04-05T06:59:51;12.13;;;6.97;;
36799;SDS011;22752;51.960;5.886;2023-04-05T07:02:17;10.03;;;6.30;;
36799;SDS011;22752;51.960;5.886;2023-04-05T07:04:44;11.10;;;6.07;;
36799;SDS011;22752;51.960;5.886;2023-04-05T07:07:11;9.03;;;5.70;;
36799;SDS011;22752;51.960;5.886;2023-04-05T07:09:40;11.17;;;5.87;;
36799;SDS011;22752;51.960;5.886;2023-04-05T07:12:06;9.80;;;6.13;;
36799;SDS011;22752;51.960;5.886;2023-04-05T07:14:33;11.13;;;6.20;;
36799;SDS011;22752;51.960;5.886;2023-04-05T07:17:04;10.90;;;6.53;;
36799;SDS011;22752;51.960;5.886;2023-04-05T07:19:31;12.90;;;5.57;;
36799;SDS011;22752;51.960;5.886;2023-04-05T07:21:57;9.10;;;5.67;;
36799;SDS011;22752;51.960;5.886;2023-04-05T07:24:24;9.77;;;6.07;;
36799;SDS011;22752;51.960;5.886;2023-04-05T07:26:50;11.07;;;5.93;;
36799;SDS011;22752;51.960;5.886;2023-04-05T07:29:16;10.20;;;6.30;;
36799;SDS011;22752;51.960;5.886;2023-04-05T07:31:41;11.70;;;5.80;;
36799;SDS011;22752;51.960;5.886;2023-04-05T07:34:07;11.02;;;5.40;;
36799;SDS011;22752;51.960;5.886;2023-04-05T07:36:33;9.90;;;5.40;;
36799;SDS011;22752;51.960;5.886;2023-04-05T07:38:59;8.80;;;5.05;;
36799;SDS011;22752;51.960;5.886;2023-04-05T07:41:25;10.88;;;5.25;;
36799;SDS011;22752;51.960;5.886;2023-04-05T07:43:55;7.78;;;5.13;;
36799;SDS011;22752;51.960;5.886;2023-04-05T07:46:21;9.30;;;4.88;;
36799;SDS011;22752;51.960;5.886;2023-04-05T07:48:47;9.60;;;5.40;;
36799;SDS011;22752;51.960;5.886;2023-04-05T07:51:13;9.00;;;5.20;;
36799;SDS011;22752;51.960;5.886;2023-04-05T07:53:39;7.80;;;4.50;;
36799;SDS011;22752;51.960;5.886;2023-04-05T07:56:14;9.98;;;5.18;;
36799;SDS011;22752;51.960;5.886;2023-04-05T07:58:40;7.63;;;5.18;;
36799;SDS011;22752;51.960;5.886;2023-04-05T08:01:07;10.35;;;5.30;;
36799;SDS011;22752;51.960;5.886;2023-04-05T08:03:35;7.30;;;5.10;;
36799;SDS011;22752;51.960;5.886;2023-04-05T08:06:12;8.18;;;4.70;;
36799;SDS011;22752;51.960;5.886;2023-04-05T08:08:41;7.72;;;4.50;;
36799;SDS011;22752;51.960;5.886;2023-04-05T08:11:07;8.80;;;4.88;;
36799;SDS011;22752;51.960;5.886;2023-04-05T08:13:34;7.00;;;4.60;;
36799;SDS011;22752;51.960;5.886;2023-04-05T08:16:00;8.20;;;4.72;;
36799;SDS011;22752;51.960;5.886;2023-04-05T08:18:26;7.22;;;5.05;;
36799;SDS011;22752;51.960;5.886;2023-04-05T08:20:52;9.25;;;5.40;;
36799;SDS011;22752;51.960;5.886;2023-04-05T08:23:19;6.40;;;4.43;;
36799;SDS011;22752;51.960;5.886;2023-04-05T08:25:44;9.50;;;5.05;;
36799;SDS011;22752;51.960;5.886;2023-04-05T08:28:10;8.13;;;5.45;;
36799;SDS011;22752;51.960;5.886;2023-04-05T08:30:37;8.55;;;4.43;;
36799;SDS011;22752;51.960;5.886;2023-04-05T08:33:03;7.10;;;4.95;;
36799;SDS011;22752;51.960;5.886;2023-04-05T08:35:29;7.10;;;4.75;;
36799;SDS011;22752;51.960;5.886;2023-04-05T08:37:55;8.02;;;5.15;;
36799;SDS011;22752;51.960;5.886;2023-04-05T08:40:20;8.50;;;5.25;;
36799;SDS011;22752;51.960;5.886;2023-04-05T08:42:51;6.35;;;4.43;;
36799;SDS011;22752;51.960;5.886;2023-04-05T08:45:26;8.32;;;4.88;;
36799;SDS011;22752;51.960;5.886;2023-04-05T08:47:53;7.80;;;4.88;;
36799;SDS011;22752;51.960;5.886;2023-04-05T08:50:19;8.35;;;5.05;;
36799;SDS011;22752;51.960;5.886;2023-04-05T08:52:45;8.30;;;5.13;;
36799;SDS011;22752;51.960;5.886;2023-04-05T08:55:14;7.17;;;4.90;;
36799;SDS011;22752;51.960;5.886;2023-04-05T08:57:42;9.23;;;5.00;;
36799;SDS011;22752;51.960;5.886;2023-04-05T09:00:10;9.17;;;5.13;;
36799;SDS011;22752;51.960;5.886;2023-04-05T09:02:36;9.93;;;5.20;;
36799;SDS011;22752;51.960;5.886;2023-04-05T09:05:03;7.97;;;4.50;;
36799;SDS011;22752;51.960;5.886;2023-04-05T09:07:33;6.87;;;4.30;;
36799;SDS011;22752;51.960;5.886;2023-04-05T09:10:00;7.57;;;4.53;;
36799;SDS011;22752;51.960;5.886;2023-04-05T09:12:29;8.97;;;5.43;;
36799;SDS011;22752;51.960;5.886;2023-04-05T09:14:56;7.67;;;4.50;;
36799;SDS011;22752;51.960;5.886;2023-04-05T09:17:24;8.00;;;4.67;;
36799;SDS011;22752;51.960;5.886;2023-04-05T09:19:52;7.57;;;4.30;;
36799;SDS011;22752;51.960;5.886;2023-04-05T09:22:17;6.50;;;4.53;;
36799;SDS011;22752;51.960;5.886;2023-04-05T09:24:44;9.80;;;5.47;;
36799;SDS011;22752;51.960;5.886;2023-04-05T09:27:11;10.17;;;4.97;;
36799;SDS011;22752;51.960;5.886;2023-04-05T09:29:39;8.97;;;4.83;;
36799;SDS011;22752;51.960;5.886;2023-04-05T09:32:06;8.07;;;4.67;;
36799;SDS011;22752;51.960;5.886;2023-04-05T09:34:33;6.10;;;4.33;;
36799;SDS011;22752;51.960;5.886;2023-04-05T09:37:12;7.33;;;4.67;;
36799;SDS011;22752;51.960;5.886;2023-04-05T09:39:39;6.27;;;4.40;;
36799;SDS011;22752;51.960;5.886;2023-04-05T09:42:12;10.07;;;5.03;;
36799;SDS011;22752;51.960;5.886;2023-04-05T09:47:24;11.07;;;5.10;;
36799;SDS011;22752;51.960;5.886;2023-04-05T09:49:55;8.30;;;4.73;;
36799;SDS011;22752;51.960;5.886;2023-04-05T09:52:22;8.10;;;4.07;;
36799;SDS011;22752;51.960;5.886;2023-04-05T09:55:01;10.40;;;4.80;;
36799;SDS011;22752;51.960;5.886;2023-04-05T09:57:28;7.60;;;4.30;;
36799;SDS011;22752;51.960;5.886;2023-04-05T09:59:58;7.80;;;4.63;;
36799;SDS011;22752;51.960;5.886;2023-04-05T10:02:24;8.37;;;4.80;;
36799;SDS011;22752;51.960;5.886;2023-04-05T10:05:00;6.77;;;3.97;;
36799;SDS011;22752;51.960;5.886;2023-04-05T10:07:37;6.57;;;3.73;;
36799;SDS011;22752;51.960;5.886;2023-04-05T10:10:05;6.73;;;4.20;;
36799;SDS011;22752;51.960;5.886;2023-04-05T10:12:31;5.80;;;3.77;;
36799;SDS011;22752;51.960;5.886;2023-04-05T10:14:57;10.27;;;4.43;;
36799;SDS011;22752;51.960;5.886;2023-04-05T10:17:27;10.10;;;5.70;;
36799;SDS011;22752;51.960;5.886;2023-04-05T10:23:06;6.23;;;4.30;;
36799;SDS011;22752;51.960;5.886;2023-04-05T10:28:29;8.53;;;4.40;;
36799;SDS011;22752;51.960;5.886;2023-04-05T10:33:51;7.30;;;4.23;;
36799;SDS011;22752;51.960;5.886;2023-04-05T10:36:49;6.47;;;4.07;;
36799;SDS011;22752;51.960;5.886;2023-04-05T10:39:25;7.87;;;4.07;;
36799;SDS011;22752;51.960;5.886;2023-04-05T10:42:06;6.83;;;4.40;;
36799;SDS011;22752;51.960;5.886;2023-04-05T10:44:43;10.77;;;5.10;;
36799;SDS011;22752;51.960;5.886;2023-04-05T10:47:15;9.70;;;4.97;;
36799;SDS011;22752;51.960;5.886;2023-04-05T10:49:44;6.43;;;4.23;;
36799;SDS011;22752;51.960;5.886;2023-04-05T10:52:12;8.33;;;5.20;;
36799;SDS011;22752;51.960;5.886;2023-04-05T10:54:39;7.73;;;4.23;;
36799;SDS011;22752;51.960;5.886;2023-04-05T10:57:07;8.00;;;4.30;;
36799;SDS011;22752;51.960;5.886;2023-04-05T10:59:34;8.83;;;4.10;;
36799;SDS011;22752;51.960;5.886;2023-04-05T11:02:04;6.03;;;3.80;;
36799;SDS011;22752;51.960;5.886;2023-04-05T11:04:31;7.53;;;4.50;;
36799;SDS011;22752;51.960;5.886;2023-04-05T11:07:10;7.10;;;4.53;;
36799;SDS011;22752;51.960;5.886;2023-04-05T11:20:51;8.07;;;4.43;;
36799;SDS011;22752;51.960;5.886;2023-04-05T11:23:21;4.53;;;3.07;;
36799;SDS011;22752;51.960;5.886;2023-04-05T11:25:53;6.33;;;3.97;;
36799;SDS011;22752;51.960;5.886;2023-04-05T11:28:36;9.00;;;5.07;;
36799;SDS011;22752;51.960;5.886;2023-04-05T11:31:14;6.10;;;4.13;;
36799;SDS011;22752;51.960;5.886;2023-04-05T11:36:09;12.13;;;4.73;;
36799;SDS011;22752;51.960;5.886;2023-04-05T11:38:35;6.50;;;4.27;;
36799;SDS011;22752;51.960;5.886;2023-04-05T11:41:19;6.33;;;4.57;;
36799;SDS011;22752;51.960;5.886;2023-04-05T11:43:46;10.37;;;4.40;;
36799;SDS011;22752;51.960;5.886;2023-04-05T11:46:15;8.60;;;4.63;;
36799;SDS011;22752;51.960;5.886;2023-04-05T11:48:41;8.77;;;4.67;;
36799;SDS011;22752;51.960;5.886;2023-04-05T11:51:07;7.13;;;4.37;;
36799;SDS011;22752;51.960;5.886;2023-04-05T11:53:37;7.00;;;4.17;;
36799;SDS011;22752;51.960;5.886;2023-04-05T11:56:06;9.37;;;5.10;;
36799;SDS011;22752;51.960;5.886;2023-04-05T11:58:34;7.13;;;3.97;;
36799;SDS011;22752;51.960;5.886;2023-04-05T12:01:01;7.10;;;4.10;;
36799;SDS011;22752;51.960;5.886;2023-04-05T12:03:29;7.93;;;4.60;;
36799;SDS011;22752;51.960;5.886;2023-04-05T12:05:56;7.53;;;4.60;;
36799;SDS011;22752;51.960;5.886;2023-04-05T12:11:09;8.13;;;4.93;;
36799;SDS011;22752;51.960;5.886;2023-04-05T12:13:37;5.80;;;4.37;;
36799;SDS011;22752;51.960;5.886;2023-04-05T12:16:04;7.47;;;4.23;;
36799;SDS011;22752;51.960;5.886;2023-04-05T12:18:34;7.47;;;4.57;;
36799;SDS011;22752;51.960;5.886;2023-04-05T12:21:02;8.00;;;4.40;;
36799;SDS011;22752;51.960;5.886;2023-04-05T12:23:36;6.33;;;3.87;;
36799;SDS011;22752;51.960;5.886;2023-04-05T12:26:03;8.83;;;4.90;;
36799;SDS011;22752;51.960;5.886;2023-04-05T12:31:38;8.40;;;4.70;;
36799;SDS011;22752;51.960;5.886;2023-04-05T12:34:08;6.23;;;4.30;;
36799;SDS011;22752;51.960;5.886;2023-04-05T12:36:35;6.47;;;4.70;;
36799;SDS011;22752;51.960;5.886;2023-04-05T12:39:04;7.10;;;4.40;;
36799;SDS011;22752;51.960;5.886;2023-04-05T12:41:32;7.03;;;4.80;;
36799;SDS011;22752;51.960;5.886;2023-04-05T12:43:58;10.97;;;5.00;;
36799;SDS011;22752;51.960;5.886;2023-04-05T12:49:05;7.47;;;5.13;;
36799;SDS011;22752;51.960;5.886;2023-04-05T12:51:34;7.33;;;4.27;;
36799;SDS011;22752;51.960;5.886;2023-04-05T12:54:00;5.10;;;4.20;;
36799;SDS011;22752;51.960;5.886;2023-04-05T12:56:29;8.33;;;5.00;;
36799;SDS011;22752;51.960;5.886;2023-04-05T12:58:54;8.27;;;5.27;;
36799;SDS011;22752;51.960;5.886;2023-04-05T13:01:20;8.77;;;4.90;;
36799;SDS011;22752;51.960;5.886;2023-04-05T13:03:46;7.23;;;4.50;;
36799;SDS011;22752;51.960;5.886;2023-04-05T13:06:12;8.90;;;4.50;;
36799;SDS011;22752;51.960;5.886;2023-04-05T13:08:37;8.60;;;5.13;;
36799;SDS011;22752;51.960;5.886;2023-04-05T13:11:03;9.57;;;5.70;;
36799;SDS011;22752;51.960;5.886;2023-04-05T13:13:28;8.83;;;4.60;;
36799;SDS011;22752;51.960;5.886;2023-04-05T13:15:54;7.07;;;5.10;;
36799;SDS011;22752;51.960;5.886;2023-04-05T13:18:20;9.03;;;5.40;;
36799;SDS011;22752;51.960;5.886;2023-04-05T13:20:45;6.77;;;4.60;;
36799;SDS011;22752;51.960;5.886;2023-04-05T13:23:11;8.40;;;5.30;;
36799;SDS011;22752;51.960;5.886;2023-04-05T13:25:38;7.43;;;5.70;;
36799;SDS011;22752;51.960;5.886;2023-04-05T13:28:04;10.43;;;4.90;;
36799;SDS011;22752;51.960;5.886;2023-04-05T13:30:30;8.67;;;5.97;;
36799;SDS011;22752;51.960;5.886;2023-04-05T13:32:56;7.03;;;5.00;;
36799;SDS011;22752;51.960;5.886;2023-04-05T13:35:22;8.00;;;4.90;;
36799;SDS011;22752;51.960;5.886;2023-04-05T13:37:48;7.78;;;4.90;;
36799;SDS011;22752;51.960;5.886;2023-04-05T13:40:14;10.83;;;5.00;;
36799;SDS011;22752;51.960;5.886;2023-04-05T13:42:42;8.63;;;5.20;;
36799;SDS011;22752;51.960;5.886;2023-04-05T13:45:08;9.50;;;5.90;;
36799;SDS011;22752;51.960;5.886;2023-04-05T13:47:34;6.67;;;4.20;;
36799;SDS011;22752;51.960;5.886;2023-04-05T13:50:00;7.63;;;4.77;;
36799;SDS011;22752;51.960;5.886;2023-04-05T13:52:27;8.73;;;4.00;;
36799;SDS011;22752;51.960;5.886;2023-04-05T13:54:52;8.03;;;5.00;;
36799;SDS011;22752;51.960;5.886;2023-04-05T13:57:18;7.55;;;5.00;;
36799;SDS011;22752;51.960;5.886;2023-04-05T13:59:44;7.53;;;4.30;;
36799;SDS011;22752;51.960;5.886;2023-04-05T14:02:09;8.85;;;5.13;;
36799;SDS011;22752;51.960;5.886;2023-04-05T14:04:36;9.07;;;5.53;;
36799;SDS011;22752;51.960;5.886;2023-04-05T14:07:05;8.63;;;5.07;;
36799;SDS011;22752;51.960;5.886;2023-04-05T14:09:31;10.55;;;4.90;;
36799;SDS011;22752;51.960;5.886;2023-04-05T14:11:58;10.63;;;5.27;;
36799;SDS011;22752;51.960;5.886;2023-04-05T14:14:25;6.93;;;4.47;;
36799;SDS011;22752;51.960;5.886;2023-04-05T14:16:51;7.17;;;4.00;;
36799;SDS011;22752;51.960;5.886;2023-04-05T14:19:17;9.10;;;5.38;;
36799;SDS011;22752;51.960;5.886;2023-04-05T14:21:43;8.73;;;5.10;;
36799;SDS011;22752;51.960;5.886;2023-04-05T14:24:09;6.87;;;4.80;;
36799;SDS011;22752;51.960;5.886;2023-04-05T14:26:35;8.80;;;5.20;;
36799;SDS011;22752;51.960;5.886;2023-04-05T14:29:01;10.65;;;6.03;;
36799;SDS011;22752;51.960;5.886;2023-04-05T14:31:27;8.23;;;4.90;;
36799;SDS011;22752;51.960;5.886;2023-04-05T14:33:53;9.03;;;4.30;;
36799;SDS011;22752;51.960;5.886;2023-04-05T14:36:18;8.05;;;4.97;;
36799;SDS011;22752;51.960;5.886;2023-04-05T14:38:44;7.53;;;5.32;;
36799;SDS011;22752;51.960;5.886;2023-04-05T14:41:10;6.90;;;5.17;;
36799;SDS011;22752;51.960;5.886;2023-04-05T14:43:36;9.30;;;5.13;;
36799;SDS011;22752;51.960;5.886;2023-04-05T14:46:02;7.88;;;5.22;;
36799;SDS011;22752;51.960;5.886;2023-04-05T14:48:27;8.38;;;5.55;;
36799;SDS011;22752;51.960;5.886;2023-04-05T14:50:55;7.57;;;5.00;;
36799;SDS011;22752;51.960;5.886;2023-04-05T14:53:22;9.07;;;5.03;;
36799;SDS011;22752;51.960;5.886;2023-04-05T14:55:48;8.73;;;5.50;;
36799;SDS011;22752;51.960;5.886;2023-04-05T14:58:14;7.37;;;5.00;;
36799;SDS011;22752;51.960;5.886;2023-04-05T15:00:40;6.13;;;4.40;;
36799;SDS011;22752;51.960;5.886;2023-04-05T15:03:07;9.50;;;5.18;;
36799;SDS011;22752;51.960;5.886;2023-04-05T15:05:33;8.88;;;5.13;;
36799;SDS011;22752;51.960;5.886;2023-04-05T15:07:58;6.70;;;5.10;;
36799;SDS011;22752;51.960;5.886;2023-04-05T15:10:24;6.90;;;4.23;;
36799;SDS011;22752;51.960;5.886;2023-04-05T15:12:50;6.57;;;4.47;;
36799;SDS011;22752;51.960;5.886;2023-04-05T15:15:15;7.37;;;4.97;;
36799;SDS011;22752;51.960;5.886;2023-04-05T15:17:41;7.55;;;5.05;;
36799;SDS011;22752;51.960;5.886;2023-04-05T15:20:07;11.63;;;5.38;;
36799;SDS011;22752;51.960;5.886;2023-04-05T15:22:33;6.65;;;4.90;;
36799;SDS011;22752;51.960;5.886;2023-04-05T15:25:00;8.10;;;5.38;;
36799;SDS011;22752;51.960;5.886;2023-04-05T15:27:26;9.88;;;5.45;;
36799;SDS011;22752;51.960;5.886;2023-04-05T15:29:51;7.45;;;5.15;;
36799;SDS011;22752;51.960;5.886;2023-04-05T15:32:17;8.93;;;4.90;;